Time,TemperatureF,DewpointF,PressureIn,WindDirection,WindDirectionDegrees,WindSpeedMPH,WindSpeedGustMPH,Humidity,HourlyPrecipIn,Conditions,Clouds,dailyrainin,SoftwareType,DateUTC
2013-08-13 00:21:00,67.0,52.0,29.91,SE,142,1.0,3.0,59,0.00,,,0.00,,2013-08-13 07:21:00,
2013-08-13 00:52:00,66.0,52.0,29.91,SE,130,1.0,3.0,60,0.00,,,0.00,,2013-08-13 07:52:00,
2013-08-13 01:21:00,65.0,52.0,29.91,SE,125,0.0,3.0,63,0.00,,,0.00,,2013-08-13 08:21:00,
2013-08-13 01:51:00,64.0,52.0,29.91,SE,136,0.0,2.0,66,0.00,,,0.00,,2013-08-13 08:51:00,
2013-08-13 02:21:00,64.0,52.0,29.90,WSW,255,1.0,3.0,64,0.00,,,0.00,,2013-08-13 09:21:00,
2013-08-13 02:53:00,64.0,52.0,29.90,SE,133,0.0,2.0,65,0.00,,,0.00,,2013-08-13 09:53:00,
2013-08-13 03:23:00,63.0,52.0,29.91,SE,135,0.0,2.0,67,0.00,,,0.00,,2013-08-13 10:23:00,
2013-08-13 03:52:00,63.0,52.0,29.91,South,186,0.0,2.0,68,0.00,,,0.00,,2013-08-13 10:52:00,
2013-08-13 04:22:00,62.0,52.0,29.91,SW,236,0.0,3.0,69,0.00,,,0.00,,2013-08-13 11:22:00,
2013-08-13 04:51:00,61.0,52.0,29.91,South,169,0.0,3.0,71,0.00,,,0.00,,2013-08-13 11:51:00,
2013-08-13 05:21:00,61.0,53.0,29.91,WSW,242,2.0,4.0,74,0.00,,,0.00,,2013-08-13 12:21:00,
2013-08-13 05:51:00,61.0,52.0,29.91,SW,225,0.0,2.0,73,0.00,,,0.00,,2013-08-13 12:51:00,
2013-08-13 06:21:00,61.0,52.0,29.91,SE,140,0.0,3.0,73,0.00,,,0.00,,2013-08-13 13:21:00,
2013-08-13 06:52:00,61.0,53.0,29.92,SE,146,0.0,2.0,74,0.00,,,0.00,,2013-08-13 13:52:00,
2013-08-13 07:21:00,61.0,53.0,29.92,SE,132,1.0,2.0,75,0.00,,,0.00,,2013-08-13 14:21:00,
2013-08-13 07:52:00,61.0,53.0,29.93,SE,135,1.0,3.0,76,0.00,,,0.00,,2013-08-13 14:52:00,
2013-08-13 08:21:00,63.0,55.0,29.93,South,172,0.0,2.0,74,0.00,,,0.00,,2013-08-13 15:21:00,
2013-08-13 08:54:00,68.0,56.0,29.94,ESE,112,0.0,2.0,65,0.00,,,0.00,,2013-08-13 15:54:00,
2013-08-13 09:23:00,70.0,55.0,29.94,East,101,0.0,2.0,60,0.00,,,0.00,,2013-08-13 16:23:00,
2013-08-13 09:54:00,72.0,56.0,29.94,SW,233,0.0,2.0,58,0.00,,,0.00,,2013-08-13 16:54:00,
2013-08-13 10:27:00,74.0,55.0,29.93,NNE,33,1.0,2.0,51,0.00,,,0.00,,2013-08-13 17:27:00,
2013-08-13 10:45:00,-999.0,-99.9,29.93,SW,215,0.0,3.0,46,0.00,,,0.00,,2013-08-13 17:45:00,
2013-08-13 10:55:00,77.0,55.0,29.93,SW,215,0.0,3.0,46,0.00,,,0.00,,2013-08-13 17:55:00,
2013-08-13 11:25:00,81.0,56.0,29.93,SSE,165,0.0,2.0,42,0.00,,,0.00,,2013-08-13 18:25:00,
2013-08-13 11:56:00,83.0,55.0,29.92,West,266,0.0,4.0,39,0.00,,,0.00,,2013-08-13 18:56:00,
2013-08-13 12:24:00,85.0,55.0,29.92,WSW,248,2.0,5.0,36,0.00,,,0.00,,2013-08-13 19:24:00,
2013-08-13 12:55:00,88.0,55.0,29.91,SW,225,0.0,4.0,33,0.00,,,0.00,,2013-08-13 19:55:00,
2013-08-13 13:22:00,90.0,55.0,29.91,West,273,1.0,3.0,31,0.00,,,0.00,,2013-08-13 20:22:00,
2013-08-13 13:53:00,91.0,53.0,29.89,NNE,31,1.0,-999.0,28,-99.99,,,-99.99,,2013-08-13 20:53:00,
2013-08-13 14:24:00,93.0,53.0,29.88,NNE,26,1.0,4.0,26,0.00,,,0.00,,2013-08-13 21:24:00,
2013-08-13 14:54:00,93.0,52.0,29.88,East,88,2.0,7.0,25,0.00,,,0.00,,2013-08-13 21:54:00,
2013-08-13 15:22:00,95.0,49.0,29.87,SSW,201,1.0,3.0,21,0.00,,,0.00,,2013-08-13 22:22:00,
2013-08-13 15:56:00,96.0,51.0,29.85,North,11,1.0,4.0,22,0.00,,,0.00,,2013-08-13 22:56:00,
2013-08-13 16:26:00,97.0,53.0,29.85,SW,219,0.0,3.0,23,0.00,,,0.00,,2013-08-13 23:26:00,
2013-08-13 16:56:00,96.0,50.0,29.84,South,170,1.0,8.0,21,0.00,,,0.00,,2013-08-13 23:56:00,
2013-08-13 17:21:00,96.0,47.0,29.83,SW,223,2.0,6.0,19,0.00,,,0.00,,2013-08-14 00:21:00,
2013-08-13 17:52:00,94.0,48.0,29.83,WSW,248,0.0,5.0,21,0.00,,,0.00,,2013-08-14 00:52:00,
2013-08-13 18:21:00,94.0,44.0,29.83,WNW,285,0.0,4.0,18,0.00,,,0.00,,2013-08-14 01:21:00,
2013-08-13 18:52:00,93.0,47.0,29.82,SW,217,2.0,3.0,21,0.00,,,0.00,,2013-08-14 01:52:00,
2013-08-13 19:21:00,94.0,48.0,29.82,SW,225,4.0,7.0,21,0.00,,,0.00,,2013-08-14 02:21:00,
2013-08-13 19:51:00,92.0,48.0,29.83,SW,214,3.0,7.0,22,0.00,,,0.00,,2013-08-14 02:51:00,
2013-08-13 20:22:00,88.0,53.0,29.83,SW,225,4.0,7.0,30,0.00,,,0.00,,2013-08-14 03:22:00,
2013-08-13 20:53:00,84.0,53.0,29.83,WSW,248,4.0,12.0,35,0.00,,,0.00,,2013-08-14 03:53:00,
2013-08-13 21:12:00,83.0,54.0,29.84,WSW,243,2.0,5.0,37,0.00,,,0.00,,2013-08-14 04:12:00,
2013-08-13 21:22:00,81.0,53.0,29.85,SW,222,2.0,6.0,38,0.00,,,0.00,,2013-08-14 04:22:00,
2013-08-13 21:52:00,79.0,53.0,29.85,SW,219,1.0,3.0,41,0.00,,,0.00,,2013-08-14 04:52:00,
2013-08-13 22:22:00,77.0,53.0,29.85,SW,222,2.0,4.0,44,0.00,,,0.00,,2013-08-14 05:22:00,
2013-08-13 22:51:00,76.0,52.0,29.85,WSW,243,3.0,8.0,44,0.00,,,0.00,,2013-08-14 05:51:00,
2013-08-13 23:21:00,74.0,52.0,29.85,SW,217,2.0,4.0,46,0.00,,,0.00,,2013-08-14 06:21:00,
2013-08-13 23:52:00,72.0,52.0,29.86,SE,139,0.0,4.0,49,0.00,,,0.00,,2013-08-14 06:52:00,